createdAt,value
2022-12-23T00:04:03.755Z,0.43
2022-12-23T00:06:34.171Z,1.05
2022-12-23T00:15:36.257Z,1.05
2022-12-23T00:18:06.750Z,1.02
2022-12-23T00:20:36.906Z,0.88
2022-12-23T00:23:07.613Z,0.95
2022-12-23T00:25:45.687Z,0.55
2022-12-23T00:28:24.770Z,0.77
2022-12-23T00:31:09.116Z,1.08
2022-12-23T00:33:42.289Z,1.05
2022-12-23T00:36:32.259Z,1.00
2022-12-23T00:39:20.639Z,0.50
2022-12-23T00:42:08.845Z,1.08
2022-12-23T00:44:39.080Z,0.77
2022-12-23T00:49:44.964Z,0.70
2022-12-23T00:52:19.556Z,0.95
2022-12-23T00:54:49.728Z,1.08
2022-12-23T00:57:19.658Z,0.65
2022-12-23T01:02:37.331Z,0.77
2022-12-23T01:05:26.217Z,1.50
2022-12-23T01:07:57.016Z,1.08
2022-12-23T01:10:27.366Z,1.10
2022-12-23T01:12:57.512Z,0.80
2022-12-23T01:15:27.966Z,1.38
2022-12-23T01:17:58.206Z,1.35
2022-12-23T01:20:28.318Z,0.77
2022-12-23T01:22:58.404Z,0.88
2022-12-23T01:25:28.721Z,1.30
2022-12-23T01:27:58.897Z,0.80
2022-12-23T01:30:29.544Z,1.08
2022-12-23T01:32:59.801Z,1.08
2022-12-23T01:35:29.856Z,1.83
2022-12-23T01:40:29.529Z,1.40
2022-12-23T01:42:59.641Z,1.13
2022-12-23T01:45:34.920Z,1.35
2022-12-23T01:48:23.537Z,1.48
2022-12-23T01:53:33.043Z,0.70
2022-12-23T01:56:06.245Z,0.65
2022-12-23T01:58:40.538Z,0.80
2022-12-23T02:01:30.207Z,0.60
2022-12-23T02:04:08.859Z,0.43
2022-12-23T02:07:02.881Z,0.32
2022-12-23T02:09:36.214Z,0.70
2022-12-23T02:12:27.550Z,1.10
2022-12-23T02:15:33.606Z,0.60
2022-12-23T02:18:37.260Z,0.75
2022-12-23T02:21:26.580Z,0.77
2022-12-23T02:24:06.081Z,0.80
2022-12-23T02:27:14.382Z,0.40
2022-12-23T02:30:08.287Z,0.43
2022-12-23T02:33:00.762Z,0.70
2022-12-23T02:35:48.604Z,0.60
2022-12-23T02:38:31.217Z,0.52
2022-12-23T02:43:48.598Z,0.60
2022-12-23T02:46:33.443Z,0.30
2022-12-23T02:49:44.370Z,0.57
2022-12-23T02:52:20.031Z,0.57
2022-12-23T02:54:57.360Z,0.50
2022-12-23T02:57:32.450Z,0.47
2022-12-23T03:00:04.620Z,0.90
2022-12-23T03:02:40.999Z,0.63
2022-12-23T03:05:34.865Z,0.73
2022-12-23T03:08:08.712Z,0.73
2022-12-23T03:11:07.084Z,0.60
2022-12-23T03:13:53.220Z,0.80
2022-12-23T03:16:51.976Z,0.82
2022-12-23T03:19:28.227Z,0.50
2022-12-23T03:22:17.303Z,0.45
2022-12-23T03:24:56.383Z,0.50
2022-12-23T03:27:34.950Z,0.52
2022-12-23T03:30:20.439Z,0.65
2022-12-23T03:33:36.825Z,0.60
2022-12-23T03:36:17.121Z,0.70
2022-12-23T03:38:47.868Z,0.38
2022-12-23T03:41:27.488Z,0.60
2022-12-23T03:44:17.802Z,0.70
2022-12-23T03:46:58.052Z,0.80
2022-12-23T03:49:41.174Z,0.50
2022-12-23T03:52:21.912Z,0.60
2022-12-23T03:55:03.401Z,0.68
2022-12-23T03:57:46.470Z,0.70
2022-12-23T04:00:16.854Z,0.77
2022-12-23T04:02:59.650Z,0.60
2022-12-23T04:05:34.943Z,1.40
2022-12-23T04:08:11.075Z,1.45
2022-12-23T04:10:41.559Z,1.40
2022-12-23T04:13:11.910Z,1.13
2022-12-23T04:15:43.834Z,0.70
2022-12-23T04:18:14.388Z,0.80
2022-12-23T04:20:44.566Z,0.63
2022-12-23T04:23:14.844Z,0.50
2022-12-23T04:25:45.106Z,0.52
2022-12-23T04:28:15.236Z,0.98
2022-12-23T04:30:45.613Z,0.88
2022-12-23T04:33:15.879Z,0.60
2022-12-23T04:38:15.850Z,0.88
2022-12-23T04:40:49.172Z,0.77
2022-12-23T04:43:19.365Z,0.60
2022-12-23T04:45:53.049Z,0.93
2022-12-23T04:48:23.368Z,0.52
2022-12-23T04:53:23.259Z,1.00
2022-12-23T04:55:53.648Z,1.45
2022-12-23T04:58:26.252Z,0.85
2022-12-23T05:01:25.582Z,1.08
2022-12-23T05:03:55.831Z,1.25
2022-12-23T05:06:25.861Z,0.85
2022-12-23T05:08:56.082Z,1.13
2022-12-23T05:11:26.285Z,1.00
2022-12-23T05:13:56.558Z,1.42
2022-12-23T05:18:56.260Z,0.90
2022-12-23T05:21:27.409Z,1.30
2022-12-23T05:23:58.096Z,1.40
2022-12-23T05:26:28.328Z,0.98
2022-12-23T05:28:58.631Z,0.85
2022-12-23T05:34:04.035Z,0.60
2022-12-23T05:36:36.538Z,0.63
2022-12-23T05:39:06.986Z,0.55
2022-12-23T05:41:37.172Z,0.68
2022-12-23T05:44:07.407Z,0.40
2022-12-23T05:46:37.875Z,0.22
2022-12-23T05:49:08.868Z,0.70
2022-12-23T05:54:08.297Z,0.95
2022-12-23T05:56:38.452Z,0.70
2022-12-23T05:59:08.618Z,0.63
2022-12-23T06:01:38.944Z,0.80
2022-12-23T06:04:09.351Z,1.17
2022-12-23T06:06:39.733Z,0.52
2022-12-23T06:11:40.601Z,0.50
2022-12-23T06:14:11.629Z,1.52
2022-12-23T06:16:41.979Z,0.63
2022-12-23T06:19:12.221Z,0.40
2022-12-23T06:21:42.445Z,0.60
2022-12-23T06:24:12.769Z,1.17
2022-12-23T06:29:13.631Z,0.82
2022-12-23T06:31:43.969Z,0.68
2022-12-23T06:36:43.701Z,0.47
2022-12-23T06:39:14.002Z,0.90
2022-12-23T06:41:44.225Z,0.50
2022-12-23T06:44:14.503Z,0.60
2022-12-23T06:46:44.694Z,0.63
2022-12-23T06:49:14.686Z,0.55
2022-12-23T06:54:14.590Z,0.68
2022-12-23T06:56:44.764Z,0.63
2022-12-23T06:59:14.919Z,1.25
2022-12-23T07:01:45.198Z,0.60
2022-12-23T07:04:15.477Z,0.57
2022-12-23T07:06:45.696Z,0.60
2022-12-23T07:10:10.957Z,0.40
2022-12-23T07:12:46.005Z,1.00
2022-12-23T07:15:19.284Z,0.68
2022-12-23T07:17:49.484Z,0.85
2022-12-23T07:20:19.846Z,0.80
2022-12-23T07:25:21.561Z,0.70
2022-12-23T07:27:57.999Z,0.90
2022-12-23T07:30:28.649Z,0.75
2022-12-23T07:32:58.814Z,0.50
2022-12-23T07:35:28.864Z,0.90
2022-12-23T07:40:29.221Z,0.75
2022-12-23T07:43:00.529Z,0.75
2022-12-23T07:45:31.530Z,1.05
2022-12-23T07:48:03.277Z,0.68
2022-12-23T07:50:33.463Z,0.85
2022-12-23T07:53:03.662Z,0.60
2022-12-23T07:55:33.874Z,1.35
2022-12-23T07:58:04.071Z,0.60
2022-12-23T08:00:34.096Z,0.52
2022-12-23T08:03:04.547Z,0.50
2022-12-23T08:05:34.922Z,0.70
2022-12-23T08:10:34.543Z,0.38
2022-12-23T08:13:04.847Z,0.60
2022-12-23T08:18:04.317Z,0.40
2022-12-23T08:20:34.553Z,0.70
2022-12-23T08:23:04.690Z,0.80
2022-12-23T08:25:34.823Z,0.40
2022-12-23T08:28:04.715Z,1.08
2022-12-23T08:30:35.074Z,0.47
2022-12-23T08:33:05.131Z,0.80
2022-12-23T08:35:35.361Z,0.77
2022-12-23T08:38:05.507Z,0.80
2022-12-23T08:40:35.887Z,0.85
2022-12-23T08:43:06.130Z,0.73
2022-12-23T08:45:40.085Z,0.50
2022-12-23T08:48:10.389Z,0.60
2022-12-23T08:53:11.581Z,0.68
2022-12-23T08:55:44.225Z,0.73
2022-12-23T08:58:16.001Z,1.17
2022-12-23T09:00:46.224Z,0.70
2022-12-23T09:03:16.487Z,1.00
2022-12-23T09:08:16.317Z,1.08
2022-12-23T09:10:46.681Z,0.90
2022-12-23T09:15:58.214Z,0.75
2022-12-23T09:18:31.053Z,1.00
2022-12-23T09:21:05.963Z,1.27
2022-12-23T09:23:36.464Z,1.23
2022-12-23T09:26:07.403Z,1.30
2022-12-23T09:28:37.629Z,0.90
2022-12-23T09:31:12.634Z,1.02
2022-12-23T09:33:42.957Z,0.77
2022-12-23T09:38:42.776Z,0.63
2022-12-23T09:44:07.217Z,1.08
2022-12-23T09:46:39.820Z,1.60
2022-12-23T09:49:15.229Z,1.95
2022-12-23T09:51:46.958Z,2.05
2022-12-23T09:54:31.132Z,2.25
2022-12-23T09:57:06.712Z,1.90
2022-12-23T10:00:21.402Z,3.38
2022-12-23T10:03:05.182Z,2.75
2022-12-23T10:06:03.923Z,2.03
2022-12-23T10:08:40.108Z,2.22
2022-12-23T10:11:24.045Z,1.95
2022-12-23T10:14:05.527Z,1.65
2022-12-23T10:16:44.346Z,1.42
2022-12-23T10:19:33.737Z,0.80
2022-12-23T10:22:17.789Z,1.08
2022-12-23T10:24:49.924Z,0.60
2022-12-23T10:27:38.516Z,0.52
2022-12-23T10:30:51.567Z,1.33
2022-12-23T10:33:28.993Z,0.82
2022-12-23T10:36:24.041Z,0.50
2022-12-23T10:38:57.053Z,0.88
2022-12-23T10:41:59.463Z,0.70
2022-12-23T10:45:09.588Z,0.82
2022-12-23T10:48:07.407Z,0.93
2022-12-23T10:51:03.302Z,0.30
2022-12-23T10:54:00.755Z,0.93
2022-12-23T10:56:32.215Z,0.70
2022-12-23T10:59:03.429Z,0.60
2022-12-23T11:01:34.221Z,0.55
2022-12-23T11:04:15.659Z,0.60
2022-12-23T11:07:10.511Z,0.68
2022-12-23T11:09:47.508Z,0.95
2022-12-23T11:12:23.378Z,0.63
2022-12-23T11:14:58.781Z,0.80
2022-12-23T11:17:32.355Z,0.63
2022-12-23T11:20:13.307Z,0.60
2022-12-23T11:23:03.685Z,0.77
2022-12-23T11:25:45.133Z,1.25
2022-12-23T11:28:23.377Z,0.73
2022-12-23T11:31:00.567Z,1.15
2022-12-23T11:33:39.216Z,0.90
2022-12-23T11:36:15.434Z,0.90
2022-12-23T11:39:04.213Z,0.75
2022-12-23T11:41:46.186Z,0.73
2022-12-23T11:44:41.698Z,0.43
2022-12-23T11:47:26.763Z,0.60
2022-12-23T11:50:00.024Z,0.30
2022-12-23T11:52:32.854Z,0.88
2022-12-23T11:55:05.632Z,0.50
2022-12-23T11:57:43.677Z,0.52
2022-12-23T12:00:26.661Z,0.93
2022-12-23T12:03:00.537Z,0.45
2022-12-23T12:05:42.184Z,0.70
2022-12-23T12:08:16.436Z,1.02
2022-12-23T12:10:47.065Z,0.68
2022-12-23T12:13:41.820Z,0.73
2022-12-23T12:16:15.145Z,0.90
2022-12-23T12:18:53.638Z,0.70
2022-12-23T12:21:30.839Z,0.80
2022-12-23T12:24:19.206Z,0.60
2022-12-23T12:26:56.955Z,0.70
2022-12-23T12:29:47.492Z,0.93
2022-12-23T12:32:36.968Z,0.47
2022-12-23T12:35:44.583Z,0.65
2022-12-23T12:38:28.990Z,0.65
2022-12-23T12:41:34.270Z,0.57
2022-12-23T12:44:32.099Z,0.63
2022-12-23T12:47:36.718Z,0.45
2022-12-23T12:50:23.583Z,0.57
2022-12-23T12:52:55.965Z,1.08
2022-12-23T12:55:34.833Z,0.55
2022-12-23T12:58:05.085Z,0.47
2022-12-23T13:00:51.930Z,0.82
2022-12-23T13:03:31.606Z,0.73
2022-12-23T13:06:15.191Z,0.63
2022-12-23T13:09:11.230Z,0.70
2022-12-23T13:11:49.771Z,0.60
2022-12-23T13:14:48.836Z,0.55
2022-12-23T13:17:40.117Z,0.73
2022-12-23T13:20:34.523Z,0.85
2022-12-23T13:23:41.657Z,0.45
2022-12-23T13:26:24.073Z,0.68
2022-12-23T13:29:05.680Z,0.60
2022-12-23T13:31:35.895Z,0.82
2022-12-23T13:34:26.615Z,0.52
2022-12-23T13:37:02.124Z,0.40
2022-12-23T13:39:50.624Z,1.15
2022-12-23T13:42:33.790Z,0.63
2022-12-23T13:45:05.482Z,0.80
2022-12-23T13:48:05.437Z,0.82
2022-12-23T13:50:47.791Z,0.52
2022-12-23T13:53:26.998Z,0.57
2022-12-23T13:56:23.704Z,0.65
2022-12-23T13:58:54.735Z,0.70
2022-12-23T14:01:42.233Z,0.60
2022-12-23T14:05:04.990Z,0.90
2022-12-23T14:07:35.939Z,0.50
2022-12-23T14:10:24.553Z,0.52
2022-12-23T14:15:40.460Z,0.63
2022-12-23T14:18:26.691Z,0.60
2022-12-23T14:21:26.463Z,0.80
2022-12-23T14:24:31.877Z,0.85
2022-12-23T14:27:38.133Z,0.43
2022-12-23T14:30:17.421Z,0.75
2022-12-23T14:33:05.335Z,0.60
2022-12-23T14:35:42.174Z,0.85
2022-12-23T14:38:12.888Z,0.63
2022-12-23T14:40:53.316Z,0.88
2022-12-23T14:43:47.720Z,0.60
2022-12-23T14:46:41.200Z,0.80
2022-12-23T14:49:38.232Z,0.50
2022-12-23T14:52:40.921Z,0.40
2022-12-23T14:55:32.608Z,0.60
2022-12-23T15:00:50.952Z,0.47
2022-12-23T15:03:21.909Z,0.50
2022-12-23T15:05:52.551Z,0.40
2022-12-23T15:08:42.430Z,0.52
2022-12-23T15:11:22.918Z,0.70
2022-12-23T15:13:55.156Z,0.57
2022-12-23T15:16:38.260Z,0.57
2022-12-23T15:19:29.263Z,0.52
2022-12-23T15:22:21.232Z,0.50
2022-12-23T15:24:52.673Z,0.82
2022-12-23T15:27:28.428Z,0.32
2022-12-23T15:30:00.256Z,0.55
2022-12-23T15:32:31.355Z,0.65
2022-12-23T15:35:07.592Z,0.60
2022-12-23T15:37:37.914Z,0.60
2022-12-23T15:40:13.422Z,0.60
2022-12-23T15:42:50.238Z,0.55
2022-12-23T15:45:41.289Z,0.70
2022-12-23T15:48:44.298Z,0.50
2022-12-23T15:54:35.715Z,0.80
2022-12-23T15:57:06.854Z,0.70
2022-12-23T15:59:40.562Z,0.50
2022-12-23T16:05:39.338Z,0.60
2022-12-23T16:08:18.510Z,0.45
2022-12-23T16:11:18.960Z,0.88
2022-12-23T16:14:03.947Z,0.47
2022-12-23T16:16:44.070Z,0.50
2022-12-23T16:19:49.134Z,0.60
2022-12-23T16:22:39.732Z,0.57
2022-12-23T16:25:32.447Z,0.60
2022-12-23T16:28:16.303Z,0.35
2022-12-23T16:30:50.667Z,0.30
2022-12-23T16:33:40.893Z,0.40
2022-12-23T16:36:29.286Z,0.57
2022-12-23T16:39:08.626Z,0.43
2022-12-23T16:41:38.756Z,0.40
2022-12-23T16:44:08.884Z,0.82
2022-12-23T16:46:42.822Z,0.70
2022-12-23T16:49:17.960Z,0.70
2022-12-23T16:51:48.466Z,0.52
2022-12-23T16:54:20.815Z,0.52
2022-12-23T16:56:53.582Z,0.55
2022-12-23T16:59:26.104Z,0.32
2022-12-23T17:02:03.122Z,0.47
2022-12-23T17:04:33.910Z,0.40
2022-12-23T17:07:07.226Z,0.30
2022-12-23T17:09:37.337Z,0.50
2022-12-23T17:12:07.687Z,0.32
2022-12-23T17:14:37.965Z,0.40
2022-12-23T17:17:16.756Z,0.40
2022-12-23T17:19:47.097Z,0.43
2022-12-23T17:22:17.343Z,0.60
2022-12-23T17:24:47.731Z,0.40
2022-12-23T17:27:21.898Z,0.40
2022-12-23T17:29:52.270Z,0.30
2022-12-23T17:32:22.472Z,0.30
2022-12-23T17:34:52.821Z,0.43
2022-12-23T17:37:24.069Z,0.25
2022-12-23T17:39:54.299Z,0.60
2022-12-23T17:42:26.021Z,0.57
2022-12-23T17:44:56.570Z,0.55
2022-12-23T17:47:26.744Z,0.40
2022-12-23T17:49:56.930Z,0.38
2022-12-23T17:52:27.881Z,0.63
2022-12-23T17:54:58.224Z,0.40
2022-12-23T17:57:29.142Z,0.75
2022-12-23T17:59:59.357Z,0.50
2022-12-23T18:02:34.070Z,0.30
2022-12-23T18:05:04.794Z,0.73
2022-12-23T18:07:34.985Z,0.22
2022-12-23T18:10:05.448Z,0.52
2022-12-23T18:12:38.995Z,0.52
2022-12-23T18:15:22.841Z,0.60
2022-12-23T18:17:54.302Z,0.63
2022-12-23T18:20:25.894Z,0.77
2022-12-23T18:22:56.892Z,0.40
2022-12-23T18:25:28.725Z,0.50
2022-12-23T18:27:58.946Z,0.55
2022-12-23T18:30:29.256Z,0.45
2022-12-23T18:32:59.458Z,0.50
2022-12-23T18:35:35.746Z,0.73
2022-12-23T18:38:05.848Z,0.40
2022-12-23T18:40:35.987Z,0.80
2022-12-23T18:43:06.482Z,0.55
2022-12-23T18:45:41.017Z,0.45
2022-12-23T18:48:11.842Z,0.57
2022-12-23T18:50:44.167Z,0.47
2022-12-23T18:53:25.693Z,0.55
2022-12-23T18:55:56.849Z,0.50
2022-12-23T18:58:27.089Z,0.60
2022-12-23T19:00:58.047Z,0.50
2022-12-23T19:03:31.454Z,0.40
2022-12-23T19:06:07.927Z,0.52
2022-12-23T19:08:38.872Z,0.40
2022-12-23T19:11:18.505Z,0.70
2022-12-23T19:13:48.868Z,0.40
2022-12-23T19:16:23.267Z,0.88
2022-12-23T19:18:53.899Z,0.35
2022-12-23T19:21:24.084Z,0.47
2022-12-23T19:23:54.265Z,0.45
2022-12-23T19:26:24.454Z,0.40
2022-12-23T19:28:54.673Z,0.90
2022-12-23T19:31:24.970Z,0.40
2022-12-23T19:33:55.314Z,0.60
2022-12-23T19:36:25.763Z,0.50
2022-12-23T19:38:58.262Z,0.65
2022-12-23T19:41:28.475Z,0.65
2022-12-23T19:43:58.605Z,0.52
2022-12-23T19:46:28.815Z,0.50
2022-12-23T19:48:59.062Z,0.47
2022-12-23T19:51:29.211Z,0.47
2022-12-23T19:53:59.374Z,0.30
2022-12-23T19:56:31.641Z,0.60
2022-12-23T19:59:01.887Z,0.38
2022-12-23T20:01:32.167Z,0.22
2022-12-23T20:04:02.512Z,0.47
2022-12-23T20:06:35.618Z,0.50
2022-12-23T20:09:07.576Z,0.30
2022-12-23T20:11:43.495Z,0.40
2022-12-23T20:16:44.866Z,0.30
2022-12-23T20:19:15.062Z,0.35
2022-12-23T20:21:48.766Z,0.20
2022-12-23T20:24:19.014Z,0.47
2022-12-23T20:26:49.432Z,0.52
2022-12-23T20:29:19.593Z,0.40
2022-12-23T20:31:49.846Z,0.50
2022-12-23T20:34:20.187Z,0.20
2022-12-23T20:36:50.612Z,0.60
2022-12-23T20:39:20.824Z,0.50
2022-12-23T20:41:50.832Z,0.30
2022-12-23T20:44:34.548Z,0.60
2022-12-23T20:47:07.373Z,0.40
2022-12-23T20:49:37.856Z,0.30
2022-12-23T20:52:08.148Z,0.40
2022-12-23T20:54:38.346Z,0.90
2022-12-23T20:57:08.543Z,0.43
2022-12-23T20:59:38.710Z,0.30
2022-12-23T21:02:08.817Z,0.50
2022-12-23T21:04:39.314Z,0.40
2022-12-23T21:07:09.933Z,0.32
2022-12-23T21:09:40.137Z,0.77
2022-12-23T21:12:10.457Z,0.63
2022-12-23T21:14:40.711Z,0.90
2022-12-23T21:17:10.940Z,0.32
2022-12-23T21:19:40.947Z,0.43
2022-12-23T21:22:11.211Z,0.75
2022-12-23T21:24:41.573Z,0.47
2022-12-23T21:27:11.821Z,0.55
2022-12-23T21:29:41.994Z,0.30
2022-12-23T21:32:12.217Z,0.40
2022-12-23T21:34:42.433Z,0.50
2022-12-23T21:37:12.762Z,0.70
2022-12-23T21:39:43.094Z,0.45
2022-12-23T21:42:13.424Z,0.98
2022-12-23T21:44:43.516Z,0.47
2022-12-23T21:47:13.903Z,1.30
2022-12-23T21:49:44.977Z,0.73
2022-12-23T21:52:15.200Z,0.57
2022-12-23T21:54:45.465Z,0.93
2022-12-23T21:57:15.779Z,0.85
2022-12-23T21:59:45.922Z,0.52
2022-12-23T22:02:19.149Z,0.65
2022-12-23T22:04:49.514Z,0.55
2022-12-23T22:07:20.059Z,0.43
2022-12-23T22:09:50.289Z,0.95
2022-12-23T22:12:20.491Z,0.88
2022-12-23T22:14:50.716Z,0.73
2022-12-23T22:17:20.970Z,0.70
2022-12-23T22:19:51.097Z,0.82
2022-12-23T22:22:21.479Z,0.70
2022-12-23T22:24:51.742Z,0.90
2022-12-23T22:27:22.028Z,0.98
2022-12-23T22:29:52.417Z,1.08
2022-12-23T22:32:22.590Z,1.00
2022-12-23T22:34:52.886Z,1.60
2022-12-23T22:37:23.176Z,1.00
2022-12-23T22:39:53.366Z,0.80
2022-12-23T22:42:23.606Z,1.10
2022-12-23T22:44:53.839Z,1.33
2022-12-23T22:47:24.257Z,2.10
2022-12-23T22:49:54.454Z,2.25
2022-12-23T22:52:24.783Z,1.50
2022-12-23T22:54:54.969Z,1.40
2022-12-23T22:57:25.115Z,1.27
2022-12-23T22:59:55.266Z,1.45
2022-12-23T23:02:27.229Z,1.60
2022-12-23T23:04:57.534Z,2.00
2022-12-23T23:07:28.114Z,2.15
2022-12-23T23:09:58.309Z,2.58
2022-12-23T23:12:28.603Z,1.90
2022-12-23T23:14:58.866Z,1.63
2022-12-23T23:17:31.048Z,1.42
2022-12-23T23:20:01.352Z,1.60
2022-12-23T23:22:31.711Z,1.17
2022-12-23T23:25:02.061Z,1.38
2022-12-23T23:27:32.399Z,1.63
2022-12-23T23:30:02.411Z,1.63
2022-12-23T23:32:32.733Z,2.30
2022-12-23T23:35:08.558Z,1.88
2022-12-23T23:37:40.799Z,1.92
2022-12-23T23:42:40.848Z,1.77
2022-12-23T23:45:11.651Z,1.88
2022-12-23T23:47:42.021Z,1.00
2022-12-23T23:50:12.493Z,1.38
2022-12-23T23:52:42.501Z,1.08
2022-12-23T23:55:13.056Z,1.38
2022-12-23T23:57:43.395Z,1.23
